createdAt,value
2018-01-11T00:01:14.447Z,3.60
2018-01-11T00:03:41.915Z,3.60
2018-01-11T00:06:09.363Z,3.60
2018-01-11T00:08:36.820Z,3.60
2018-01-11T00:11:04.280Z,3.70
2018-01-11T00:13:31.743Z,3.80
2018-01-11T00:15:59.183Z,3.80
2018-01-11T00:18:26.672Z,3.80
2018-01-11T00:20:54.883Z,3.80
2018-01-11T00:23:22.383Z,3.80
2018-01-11T00:25:49.835Z,3.80
2018-01-11T00:28:17.287Z,3.90
2018-01-11T00:30:44.739Z,3.90
2018-01-11T00:33:12.200Z,3.90
2018-01-11T00:35:39.653Z,3.90
2018-01-11T00:38:07.115Z,4.00
2018-01-11T00:40:34.568Z,4.00
2018-01-11T00:43:02.027Z,4.00
2018-01-11T00:45:29.487Z,4.00
2018-01-11T00:47:56.934Z,4.00
2018-01-11T00:50:24.389Z,4.00
2018-01-11T00:52:51.844Z,4.00
2018-01-11T00:55:19.299Z,3.90
2018-01-11T00:57:46.759Z,4.00
2018-01-11T01:00:14.211Z,4.00
2018-01-11T01:02:41.672Z,3.90
2018-01-11T01:05:09.131Z,3.90
2018-01-11T01:07:36.588Z,3.80
2018-01-11T01:10:04.040Z,3.80
2018-01-11T01:12:31.499Z,3.70
2018-01-11T01:14:58.956Z,3.70
2018-01-11T01:17:26.407Z,3.60
2018-01-11T01:19:53.867Z,3.60
2018-01-11T01:22:21.323Z,3.60
2018-01-11T01:24:48.780Z,3.60
2018-01-11T01:27:16.232Z,3.60
2018-01-11T01:29:43.691Z,3.60
2018-01-11T01:32:11.148Z,3.50
2018-01-11T01:34:38.607Z,3.40
2018-01-11T01:37:06.059Z,3.40
2018-01-11T01:39:33.510Z,3.30
2018-01-11T01:42:00.973Z,3.30
2018-01-11T01:44:28.434Z,3.20
2018-01-11T01:46:55.886Z,3.20
2018-01-11T01:49:23.347Z,3.10
2018-01-11T01:51:50.800Z,3.00
2018-01-11T01:54:18.247Z,3.00
2018-01-11T01:56:45.707Z,3.00
2018-01-11T01:59:13.163Z,3.00
2018-01-11T02:01:40.619Z,2.90
2018-01-11T02:04:08.074Z,2.90
2018-01-11T02:06:35.536Z,2.80
2018-01-11T02:09:02.982Z,2.70
2018-01-11T02:11:30.447Z,2.70
2018-01-11T02:13:57.899Z,2.60
2018-01-11T02:16:25.363Z,2.50
2018-01-11T02:18:52.824Z,2.40
2018-01-11T02:21:20.275Z,2.40
2018-01-11T02:23:47.727Z,2.30
2018-01-11T02:26:15.178Z,2.30
2018-01-11T02:28:42.635Z,2.30
2018-01-11T02:31:10.096Z,2.30
2018-01-11T02:33:37.551Z,2.30
2018-01-11T02:36:05.023Z,2.40
2018-01-11T02:38:32.472Z,2.40
2018-01-11T02:40:59.934Z,2.40
2018-01-11T02:43:28.160Z,2.20
2018-01-11T02:45:55.620Z,2.20
2018-01-11T02:48:23.079Z,2.20
2018-01-11T02:50:50.547Z,2.20
2018-01-11T02:53:18.007Z,2.10
2018-01-11T02:55:45.543Z,2.20
2018-01-11T02:58:13.005Z,2.20
2018-01-11T03:00:40.475Z,2.10
2018-01-11T03:03:07.933Z,2.00
2018-01-11T03:05:35.407Z,1.90
2018-01-11T03:08:02.859Z,1.90
2018-01-11T03:10:30.308Z,1.90
2018-01-11T03:12:57.777Z,2.00
2018-01-11T03:15:25.227Z,2.00
2018-01-11T03:17:52.683Z,2.00
2018-01-11T03:20:20.143Z,2.00
2018-01-11T03:22:47.604Z,1.90
2018-01-11T03:25:15.053Z,1.90
2018-01-11T03:27:42.510Z,1.80
2018-01-11T03:30:09.968Z,1.70
2018-01-11T03:32:37.428Z,1.70
2018-01-11T03:35:04.879Z,1.70
2018-01-11T03:37:32.338Z,1.70
2018-01-11T03:39:59.793Z,1.70
2018-01-11T03:42:27.251Z,1.60
2018-01-11T03:44:54.708Z,1.50
2018-01-11T03:47:22.163Z,1.50
2018-01-11T03:49:49.615Z,1.40
2018-01-11T03:52:17.087Z,1.40
2018-01-11T03:54:44.532Z,1.30
2018-01-11T03:57:12.807Z,1.30
2018-01-11T03:59:40.404Z,1.30
2018-01-11T04:02:07.808Z,1.20
2018-01-11T04:04:35.263Z,1.20
2018-01-11T04:07:02.723Z,1.20
2018-01-11T04:09:30.175Z,1.30
2018-01-11T04:11:57.644Z,1.20
2018-01-11T04:14:25.112Z,1.20
2018-01-11T04:16:52.555Z,1.20
2018-01-11T04:19:20.023Z,1.30
2018-01-11T04:21:47.478Z,1.30
2018-01-11T04:24:14.945Z,1.30
2018-01-11T04:26:43.164Z,1.10
2018-01-11T04:29:10.623Z,1.10
2018-01-11T04:31:38.074Z,1.10
2018-01-11T04:34:05.539Z,1.00
2018-01-11T04:36:32.983Z,1.00
2018-01-11T04:39:00.444Z,1.00
2018-01-11T04:41:27.900Z,1.00
2018-01-11T04:43:55.351Z,0.90
2018-01-11T04:46:23.015Z,0.90
2018-01-11T04:48:50.478Z,0.90
2018-01-11T04:51:17.951Z,1.00
2018-01-11T04:53:45.415Z,1.00
2018-01-11T04:56:12.883Z,1.00
2018-01-11T04:58:40.335Z,1.00
2018-01-11T05:01:07.792Z,0.90
2018-01-11T05:03:35.276Z,0.90
2018-01-11T05:06:03.508Z,0.90
2018-01-11T05:08:30.979Z,0.90
2018-01-11T05:10:58.437Z,0.90
2018-01-11T05:13:25.891Z,0.90
2018-01-11T05:15:53.351Z,0.80
2018-01-11T05:18:20.859Z,0.70
2018-01-11T05:20:49.196Z,0.80
2018-01-11T05:23:16.678Z,0.70
2018-01-11T05:25:44.154Z,0.70
2018-01-11T05:28:11.854Z,0.70
2018-01-11T05:30:39.340Z,0.60
2018-01-11T05:33:07.555Z,0.50
2018-01-11T05:35:35.112Z,0.50
2018-01-11T05:38:02.567Z,0.50
2018-01-11T05:40:30.023Z,0.50
2018-01-11T05:42:57.480Z,0.50
2018-01-11T05:45:24.936Z,0.50
2018-01-11T05:47:52.392Z,0.50
2018-01-11T05:50:19.924Z,0.50
2018-01-11T05:52:47.429Z,0.50
2018-01-11T05:55:14.899Z,0.50
2018-01-11T05:57:42.354Z,0.50
2018-01-11T06:00:09.824Z,0.50
2018-01-11T06:02:37.280Z,0.50
2018-01-11T06:05:04.729Z,0.50
2018-01-11T06:07:32.179Z,0.50
2018-01-11T06:09:59.640Z,0.50
2018-01-11T06:12:27.094Z,0.50
2018-01-11T06:14:54.559Z,0.50
2018-01-11T06:17:22.276Z,0.50
2018-01-11T06:19:49.731Z,0.50
2018-01-11T06:22:17.187Z,0.50
2018-01-11T06:24:44.643Z,0.50
2018-01-11T06:27:12.100Z,0.50
2018-01-11T06:29:39.560Z,0.50
2018-01-11T06:32:07.016Z,0.50
2018-01-11T06:34:34.467Z,0.60
2018-01-11T06:37:01.928Z,0.80
2018-01-11T06:39:29.387Z,1.00
2018-01-11T06:41:56.844Z,1.20
2018-01-11T06:44:24.299Z,1.10
2018-01-11T06:46:51.767Z,1.00
2018-01-11T06:49:19.223Z,0.90
2018-01-11T06:51:46.683Z,0.90
2018-01-11T06:54:14.147Z,0.90
2018-01-11T06:56:41.612Z,0.90
2018-01-11T06:59:09.067Z,0.80
2018-01-11T07:01:37.312Z,0.80
2018-01-11T07:04:04.988Z,0.80
2018-01-11T07:06:32.460Z,0.80
2018-01-11T07:08:59.915Z,0.70
2018-01-11T07:11:27.383Z,0.70
2018-01-11T07:13:54.839Z,0.70
2018-01-11T07:16:22.298Z,0.60
2018-01-11T07:18:49.752Z,0.70
2018-01-11T07:21:17.212Z,0.70
2018-01-11T07:23:44.674Z,0.60
2018-01-11T07:26:12.907Z,0.70
2018-01-11T07:28:40.361Z,0.60
2018-01-11T07:31:07.834Z,0.70
2018-01-11T07:33:35.275Z,0.70
2018-01-11T07:36:02.731Z,0.80
2018-01-11T07:38:30.228Z,0.80
2018-01-11T07:40:58.459Z,0.90
2018-01-11T07:43:25.907Z,0.80
2018-01-11T07:45:53.371Z,0.90
2018-01-11T07:48:20.821Z,0.80
2018-01-11T07:50:48.276Z,0.90
2018-01-11T07:53:16.736Z,0.90
2018-01-11T07:55:44.204Z,0.90
2018-01-11T07:58:11.668Z,0.90
2018-01-11T08:00:39.119Z,0.90
2018-01-11T08:03:06.588Z,0.90
2018-01-11T08:05:34.036Z,0.90
2018-01-11T08:08:01.501Z,0.90
2018-01-11T08:10:28.943Z,0.90
2018-01-11T08:12:56.402Z,1.00
2018-01-11T08:15:23.863Z,1.00
2018-01-11T08:17:51.322Z,1.00
2018-01-11T08:20:18.779Z,1.00
2018-01-11T08:22:46.248Z,1.10
2018-01-11T08:25:13.708Z,1.10
2018-01-11T08:27:41.182Z,1.20
2018-01-11T08:30:08.644Z,1.40
2018-01-11T08:32:36.108Z,1.50
2018-01-11T08:35:03.558Z,1.60
2018-01-11T08:37:31.011Z,1.70
2018-01-11T08:39:58.466Z,1.80
2018-01-11T08:42:25.925Z,1.90
2018-01-11T08:44:53.386Z,1.90
2018-01-11T08:47:20.840Z,2.00
2018-01-11T08:49:48.295Z,2.20
2018-01-11T08:52:16.536Z,2.40
2018-01-11T08:54:43.980Z,2.40
2018-01-11T08:57:11.446Z,2.50
2018-01-11T08:59:38.903Z,2.60
2018-01-11T09:02:06.363Z,2.60
2018-01-11T09:04:33.816Z,2.60
2018-01-11T09:07:01.286Z,2.70
2018-01-11T09:09:28.753Z,2.70
2018-01-11T09:11:56.204Z,2.80
2018-01-11T09:14:23.662Z,2.90
2018-01-11T09:16:51.115Z,3.00
2018-01-11T09:19:18.579Z,3.00
2018-01-11T09:21:46.032Z,3.00
2018-01-11T09:24:13.496Z,3.00
2018-01-11T09:26:40.952Z,3.00
2018-01-11T09:29:08.408Z,3.00
2018-01-11T09:31:35.867Z,3.00
2018-01-11T09:34:03.335Z,3.20
2018-01-11T09:36:31.560Z,3.40
2018-01-11T09:38:59.023Z,3.40
2018-01-11T09:41:26.484Z,3.50
2018-01-11T09:43:54.001Z,3.80
2018-01-11T09:46:21.457Z,4.00
2018-01-11T09:48:48.912Z,4.50
2018-01-11T09:51:16.366Z,5.30
2018-01-11T09:53:43.818Z,6.30
2018-01-11T09:56:11.267Z,7.10
2018-01-11T09:58:39.492Z,8.70
2018-01-11T10:01:06.943Z,8.70
2018-01-11T10:03:34.398Z,9.00
2018-01-11T10:06:01.847Z,9.40
2018-01-11T10:08:29.307Z,9.70
2018-01-11T10:10:56.750Z,9.70
2018-01-11T10:13:24.211Z,9.60
2018-01-11T10:15:51.667Z,10.10
2018-01-11T10:18:19.131Z,10.70
2018-01-11T10:20:46.587Z,10.80
2018-01-11T10:23:14.039Z,11.30
2018-01-11T10:25:41.499Z,11.60
2018-01-11T10:28:08.954Z,11.60
2018-01-11T10:30:36.412Z,11.90
2018-01-11T10:33:03.869Z,11.90
2018-01-11T10:35:31.331Z,12.00
2018-01-11T10:37:58.799Z,12.60
2018-01-11T10:40:26.259Z,12.80
2018-01-11T10:42:53.712Z,12.70
2018-01-11T10:45:21.174Z,12.70
2018-01-11T10:47:48.632Z,13.10
2018-01-11T10:50:16.102Z,12.60
2018-01-11T10:52:43.549Z,13.00
2018-01-11T10:55:11.009Z,13.40
2018-01-11T10:57:38.457Z,13.70
2018-01-11T11:00:05.925Z,13.70
2018-01-11T11:02:39.084Z,13.80
2018-01-11T11:05:06.551Z,14.30
2018-01-11T11:07:33.996Z,14.10
2018-01-11T11:10:01.456Z,14.60
2018-01-11T11:12:28.912Z,14.70
2018-01-11T11:14:56.368Z,14.80
2018-01-11T11:17:24.592Z,14.10
2018-01-11T11:19:52.815Z,14.80
2018-01-11T11:22:20.274Z,14.70
2018-01-11T11:24:47.735Z,14.60
2018-01-11T11:27:15.189Z,14.60
2018-01-11T11:29:42.664Z,14.50
2018-01-11T11:32:10.119Z,14.60
2018-01-11T11:34:37.595Z,14.70
2018-01-11T11:37:05.055Z,14.90
2018-01-11T11:39:32.503Z,15.10
2018-01-11T11:41:59.962Z,15.30
2018-01-11T11:44:27.419Z,15.10
2018-01-11T11:46:54.878Z,14.70
2018-01-11T11:49:22.333Z,15.30
2018-01-11T11:51:49.788Z,15.30
2018-01-11T11:54:17.247Z,15.30
2018-01-11T11:56:44.707Z,15.40
2018-01-11T11:59:12.164Z,15.40
2018-01-11T12:01:39.626Z,15.30
2018-01-11T12:04:07.076Z,15.00
2018-01-11T12:06:34.539Z,14.80
2018-01-11T12:09:01.983Z,14.90
2018-01-11T12:11:29.448Z,14.60
2018-01-11T12:13:56.900Z,14.30
2018-01-11T12:16:24.363Z,14.30
2018-01-11T12:18:51.816Z,14.40
2018-01-11T12:21:19.268Z,14.60
2018-01-11T12:23:46.720Z,14.90
2018-01-11T12:26:14.180Z,15.00
2018-01-11T12:28:41.640Z,15.10
2018-01-11T12:31:09.104Z,15.40
2018-01-11T12:33:36.547Z,15.50
2018-01-11T12:36:04.016Z,15.60
2018-01-11T12:38:31.460Z,14.70
2018-01-11T12:40:58.921Z,14.50
2018-01-11T12:43:26.375Z,14.20
2018-01-11T12:45:53.831Z,14.00
2018-01-11T12:48:21.296Z,13.90
2018-01-11T12:50:48.741Z,13.80
2018-01-11T12:53:16.213Z,13.60
2018-01-11T12:55:43.660Z,13.30
2018-01-11T12:58:11.123Z,12.70
2018-01-11T13:00:38.576Z,12.40
2018-01-11T13:03:06.044Z,12.00
2018-01-11T13:05:33.488Z,11.60
2018-01-11T13:08:00.949Z,11.50
2018-01-11T13:10:28.388Z,11.10
2018-01-11T13:12:55.847Z,11.00
2018-01-11T13:15:23.324Z,11.00
2018-01-11T13:17:50.780Z,11.00
2018-01-11T13:20:18.227Z,11.50
2018-01-11T13:22:45.686Z,12.10
2018-01-11T13:25:13.154Z,12.80
2018-01-11T13:27:40.605Z,13.30
2018-01-11T13:30:08.684Z,14.00
2018-01-11T13:32:36.145Z,14.70
2018-01-11T13:35:03.587Z,15.10
2018-01-11T13:37:31.039Z,15.30
2018-01-11T13:39:58.496Z,15.70
2018-01-11T13:42:26.008Z,15.60
2018-01-11T13:44:53.444Z,15.60
2018-01-11T13:47:21.663Z,16.10
2018-01-11T13:49:49.335Z,16.00
2018-01-11T13:52:16.886Z,16.10
2018-01-11T13:54:45.152Z,16.70
2018-01-11T13:57:12.596Z,16.70
2018-01-11T13:59:40.088Z,16.50
2018-01-11T14:02:07.552Z,16.50
2018-01-11T14:04:35.023Z,17.10
2018-01-11T14:07:02.554Z,17.30
2018-01-11T14:09:30.019Z,16.80
2018-01-11T14:11:57.479Z,16.90
2018-01-11T14:14:29.587Z,16.80
2018-01-11T14:16:59.449Z,17.30
2018-01-11T14:19:27.737Z,17.00
2018-01-11T14:21:56.098Z,17.20
2018-01-11T14:24:23.613Z,16.80
2018-01-11T14:26:51.063Z,16.00
2018-01-11T14:29:18.538Z,15.60
2018-01-11T14:31:45.994Z,15.10
2018-01-11T14:34:13.468Z,14.10
2018-01-11T14:36:41.256Z,13.40
2018-01-11T14:39:08.742Z,12.60
2018-01-11T14:41:36.194Z,12.40
2018-01-11T14:44:04.548Z,11.70
2018-01-11T14:46:32.012Z,11.70
2018-01-11T14:48:59.477Z,11.50
2018-01-11T14:51:27.699Z,10.90
2018-01-11T14:53:55.162Z,10.90
2018-01-11T14:56:22.626Z,10.60
2018-01-11T14:58:50.087Z,10.40
2018-01-11T15:01:17.544Z,10.30
2018-01-11T15:03:44.999Z,10.00
2018-01-11T15:06:12.455Z,9.80
2018-01-11T15:08:39.911Z,9.70
2018-01-11T15:11:07.361Z,9.80
2018-01-11T15:13:34.811Z,9.70
2018-01-11T15:16:02.280Z,9.60
2018-01-11T15:18:29.727Z,9.40
2018-01-11T15:20:57.183Z,9.40
2018-01-11T15:23:24.636Z,9.30
2018-01-11T15:25:52.103Z,9.30
2018-01-11T15:28:19.560Z,9.20
2018-01-11T15:30:47.008Z,9.10
2018-01-11T15:33:14.512Z,8.90
2018-01-11T15:35:42.726Z,8.70
2018-01-11T15:40:42.493Z,8.70
2018-01-11T15:43:09.949Z,8.60
2018-01-11T15:45:37.404Z,8.60
2018-01-11T15:48:04.859Z,8.50
2018-01-11T15:50:32.313Z,8.50
2018-01-11T15:52:59.770Z,8.30
2018-01-11T15:55:27.215Z,8.30
2018-01-11T15:57:54.658Z,8.20
2018-01-11T16:00:22.115Z,8.10
2018-01-11T16:02:49.558Z,8.10
2018-01-11T16:05:17.015Z,8.00
2018-01-11T16:07:44.468Z,8.00
2018-01-11T16:10:11.921Z,7.90
2018-01-11T16:12:39.360Z,7.90
2018-01-11T16:15:07.580Z,7.90
2018-01-11T16:17:35.059Z,7.90
2018-01-11T16:20:02.491Z,7.80
2018-01-11T16:22:29.952Z,7.80
2018-01-11T16:24:57.440Z,7.80
2018-01-11T16:27:25.659Z,7.60
2018-01-11T16:29:53.115Z,7.60
2018-01-11T16:32:20.568Z,7.60
2018-01-11T16:34:48.124Z,7.50
2018-01-11T16:37:15.575Z,7.50
2018-01-11T16:39:43.019Z,7.40
2018-01-11T16:42:10.467Z,7.30
2018-01-11T16:44:38.700Z,7.10
2018-01-11T16:47:06.151Z,7.10
2018-01-11T16:49:33.599Z,7.00
2018-01-11T16:52:01.090Z,6.90
2018-01-11T16:54:28.812Z,6.90
2018-01-11T16:56:56.484Z,6.80
2018-01-11T16:59:23.950Z,6.80
2018-01-11T17:01:51.405Z,6.70
2018-01-11T17:04:18.907Z,6.60
2018-01-11T17:06:47.123Z,6.60
2018-01-11T17:09:14.564Z,6.60
2018-01-11T17:11:42.834Z,6.50
2018-01-11T17:14:10.280Z,6.50
2018-01-11T17:16:37.726Z,6.40
2018-01-11T17:19:05.939Z,6.20
2018-01-11T17:21:33.387Z,6.20
2018-01-11T17:24:00.842Z,6.10
2018-01-11T17:26:28.299Z,6.00
2018-01-11T17:28:55.739Z,6.00
2018-01-11T17:31:23.191Z,5.90
2018-01-11T17:33:50.630Z,5.80
2018-01-11T17:36:18.864Z,5.70
2018-01-11T17:38:46.311Z,5.70
2018-01-11T17:41:13.760Z,5.70
2018-01-11T17:43:41.212Z,5.50
2018-01-11T17:46:08.664Z,5.40
2018-01-11T17:48:36.125Z,5.40
2018-01-11T17:51:03.575Z,5.30
2018-01-11T17:53:31.039Z,5.40
2018-01-11T17:55:58.495Z,5.30
2018-01-11T17:58:25.948Z,5.30
2018-01-11T18:00:53.402Z,5.20
2018-01-11T18:03:20.859Z,5.20
2018-01-11T18:05:48.316Z,5.20
2018-01-11T18:08:15.774Z,5.10
2018-01-11T18:10:43.227Z,5.10
2018-01-11T18:13:10.689Z,5.10
2018-01-11T18:15:38.142Z,5.10
2018-01-11T18:18:06.369Z,5.10
2018-01-11T18:20:33.820Z,5.10
2018-01-11T18:23:01.275Z,5.10
2018-01-11T18:25:28.723Z,5.10
2018-01-11T18:27:56.175Z,5.10
2018-01-11T18:30:23.624Z,5.10
2018-01-11T18:32:51.099Z,5.10
2018-01-11T18:35:18.547Z,5.10
2018-01-11T18:37:45.998Z,5.00
2018-01-11T18:40:13.442Z,5.00
2018-01-11T18:42:40.894Z,4.90
2018-01-11T18:45:08.387Z,4.80
2018-01-11T18:47:36.619Z,4.80
2018-01-11T18:50:04.064Z,4.80
2018-01-11T18:52:31.618Z,4.80
2018-01-11T18:54:59.073Z,4.80
2018-01-11T18:57:26.514Z,4.70
2018-01-11T18:59:53.975Z,4.60
2018-01-11T19:02:21.417Z,4.50
2018-01-11T19:04:49.630Z,4.40
2018-01-11T19:07:17.078Z,4.40
2018-01-11T19:09:44.532Z,4.40
2018-01-11T19:12:11.991Z,4.30
2018-01-11T19:14:39.556Z,4.30
2018-01-11T19:17:07.003Z,4.20
2018-01-11T19:19:34.463Z,4.20
2018-01-11T19:22:01.920Z,4.20
2018-01-11T19:24:29.380Z,4.10
2018-01-11T19:26:56.827Z,4.10
2018-01-11T19:29:24.287Z,4.00
2018-01-11T19:31:51.739Z,4.00
2018-01-11T19:34:19.196Z,3.90
2018-01-11T19:36:46.658Z,3.90
2018-01-11T19:39:14.115Z,3.90
2018-01-11T19:41:41.566Z,3.50
2018-01-11T19:44:09.022Z,3.80
2018-01-11T19:46:36.478Z,3.80
2018-01-11T19:49:03.940Z,3.80
2018-01-11T19:51:31.431Z,3.80
2018-01-11T19:53:58.883Z,3.80
2018-01-11T19:56:26.338Z,3.80
2018-01-11T19:58:53.835Z,3.80
2018-01-11T20:01:22.051Z,3.80
2018-01-11T20:03:49.501Z,3.80
2018-01-11T20:06:16.951Z,3.90
2018-01-11T20:08:44.394Z,3.90
2018-01-11T20:11:11.847Z,3.90
2018-01-11T20:13:39.307Z,3.90
2018-01-11T20:16:06.776Z,4.00
2018-01-11T20:18:34.217Z,4.00
2018-01-11T20:21:10.139Z,3.90
2018-01-11T20:23:37.583Z,4.00
2018-01-11T20:26:05.085Z,4.00
2018-01-11T20:28:33.294Z,3.90
2018-01-11T20:31:00.766Z,3.90
2018-01-11T20:33:28.215Z,3.90
2018-01-11T20:35:55.675Z,3.90
2018-01-11T20:38:23.127Z,3.90
2018-01-11T20:40:50.630Z,4.00
2018-01-11T20:43:18.840Z,4.00
2018-01-11T20:45:46.352Z,4.00
2018-01-11T20:48:13.783Z,4.00
2018-01-11T20:50:41.247Z,4.00
2018-01-11T20:53:08.698Z,4.10
2018-01-11T20:55:36.539Z,4.10
2018-01-11T20:58:04.000Z,4.10
2018-01-11T21:00:31.451Z,4.00
2018-01-11T21:02:58.908Z,4.00
2018-01-11T21:05:26.363Z,4.00
2018-01-11T21:07:53.851Z,3.90
2018-01-11T21:10:21.331Z,3.90
2018-01-11T21:12:49.567Z,3.90
2018-01-11T21:15:17.069Z,3.90
2018-01-11T21:17:45.274Z,3.90
2018-01-11T21:20:12.733Z,3.90
2018-01-11T21:22:40.183Z,3.90
2018-01-11T21:25:07.683Z,3.90
2018-01-11T21:27:35.189Z,3.90
2018-01-11T21:30:02.705Z,3.90
2018-01-11T21:32:30.158Z,3.90
2018-01-11T21:34:58.472Z,4.00
2018-01-11T21:37:25.939Z,3.90
2018-01-11T21:39:53.441Z,4.00
2018-01-11T21:42:20.891Z,4.00
2018-01-11T21:44:48.348Z,4.00
2018-01-11T21:47:15.815Z,4.00
2018-01-11T21:49:43.303Z,4.00
2018-01-11T21:52:11.523Z,4.00
2018-01-11T21:54:38.966Z,4.00
2018-01-11T21:57:06.430Z,4.00
2018-01-11T21:59:33.895Z,4.00
2018-01-11T22:02:01.402Z,4.00
2018-01-11T22:04:28.860Z,4.10
2018-01-11T22:06:56.321Z,4.10
2018-01-11T22:09:23.775Z,4.00
2018-01-11T22:11:51.227Z,4.00
2018-01-11T22:14:18.721Z,4.10
2018-01-11T22:16:46.185Z,4.00
2018-01-11T22:19:13.639Z,4.10
2018-01-11T22:21:41.102Z,4.10
2018-01-11T22:24:08.544Z,4.10
2018-01-11T22:26:36.007Z,4.10
2018-01-11T22:29:03.458Z,4.10
2018-01-11T22:31:30.932Z,4.10
2018-01-11T22:33:58.370Z,4.10
2018-01-11T22:36:25.823Z,4.10
2018-01-11T22:38:53.288Z,4.10
2018-01-11T22:41:20.742Z,4.10
2018-01-11T22:43:48.186Z,4.10
2018-01-11T22:46:15.638Z,4.00
2018-01-11T22:48:43.859Z,4.10
2018-01-11T22:51:11.302Z,4.10
2018-01-11T22:53:38.764Z,4.10
2018-01-11T22:56:06.220Z,4.10
2018-01-11T22:58:33.670Z,4.10
2018-01-11T23:01:01.124Z,4.20
2018-01-11T23:03:28.578Z,4.10
2018-01-11T23:05:56.019Z,4.10
2018-01-11T23:08:23.476Z,4.10
2018-01-11T23:10:50.926Z,4.20
2018-01-11T23:13:18.382Z,4.10
2018-01-11T23:15:45.827Z,4.10
2018-01-11T23:18:13.347Z,4.10
2018-01-11T23:20:41.563Z,4.20
2018-01-11T23:23:09.018Z,4.20
2018-01-11T23:25:36.472Z,4.20
2018-01-11T23:28:03.935Z,4.20
2018-01-11T23:30:31.383Z,4.20
2018-01-11T23:32:58.845Z,4.20
2018-01-11T23:35:26.295Z,4.20
2018-01-11T23:37:53.755Z,4.20
2018-01-11T23:40:21.209Z,4.20
2018-01-11T23:42:48.679Z,4.20
2018-01-11T23:45:16.231Z,4.20
2018-01-11T23:47:43.682Z,4.20
2018-01-11T23:50:11.138Z,4.20
2018-01-11T23:52:38.591Z,4.20
2018-01-11T23:55:06.046Z,4.10
2018-01-11T23:57:33.503Z,4.10
